createdAt,value
2018-09-17T00:01:35.346Z,58.52
2018-09-17T00:06:27.922Z,58.33
2018-09-17T00:11:20.547Z,58.25
2018-09-17T00:16:13.260Z,58.85
2018-09-17T00:21:05.884Z,58.65
2018-09-17T00:25:58.667Z,58.76
2018-09-17T00:30:51.419Z,59.67
2018-09-17T00:35:44.027Z,59.00
2018-09-17T00:40:36.533Z,59.25
2018-09-17T00:45:29.066Z,60.01
2018-09-17T00:50:21.838Z,59.78
2018-09-17T00:55:14.585Z,60.06
2018-09-17T01:00:07.144Z,60.79
2018-09-17T01:04:59.742Z,60.65
2018-09-17T01:09:52.405Z,61.15
2018-09-17T01:14:44.945Z,61.04
2018-09-17T01:19:37.574Z,60.72
2018-09-17T01:24:30.429Z,61.29
2018-09-17T01:29:23.214Z,61.52
2018-09-17T01:34:15.762Z,62.18
2018-09-17T01:39:09.324Z,62.16
2018-09-17T01:44:01.890Z,62.00
2018-09-17T01:48:54.450Z,62.24
2018-09-17T01:53:47.054Z,62.35
2018-09-17T01:58:39.599Z,62.27
2018-09-17T02:03:32.188Z,62.04
2018-09-17T02:08:24.760Z,62.58
2018-09-17T02:13:17.326Z,63.22
2018-09-17T02:18:09.891Z,63.05
2018-09-17T02:23:02.540Z,63.15
2018-09-17T02:27:55.347Z,63.73
2018-09-17T02:32:47.888Z,63.53
2018-09-17T02:37:40.474Z,63.92
2018-09-17T02:42:33.125Z,64.00
2018-09-17T02:47:25.761Z,63.42
2018-09-17T02:52:18.322Z,63.54
2018-09-17T02:57:10.852Z,64.12
2018-09-17T03:02:03.431Z,64.03
2018-09-17T03:06:56.057Z,64.30
2018-09-17T03:11:48.647Z,64.22
2018-09-17T03:16:58.953Z,64.56
2018-09-17T03:21:52.008Z,64.38
2018-09-17T03:26:44.628Z,64.21
2018-09-17T03:31:37.381Z,64.61
2018-09-17T03:36:29.938Z,64.86
2018-09-17T03:41:22.523Z,64.93
2018-09-17T03:46:15.347Z,65.32
2018-09-17T03:51:08.383Z,65.23
2018-09-17T03:56:01.012Z,65.59
2018-09-17T04:00:53.567Z,65.68
2018-09-17T04:05:46.175Z,65.33
2018-09-17T04:10:38.832Z,65.49
2018-09-17T04:15:31.478Z,65.89
2018-09-17T04:20:24.112Z,65.90
2018-09-17T04:25:16.718Z,66.01
2018-09-17T04:30:09.416Z,65.89
2018-09-17T04:35:02.707Z,65.49
2018-09-17T04:39:55.455Z,65.49
2018-09-17T04:44:48.073Z,65.58
2018-09-17T04:49:41.541Z,65.51
2018-09-17T04:54:34.191Z,65.83
2018-09-17T04:59:26.739Z,65.77
2018-09-17T05:04:19.240Z,65.61
2018-09-17T05:09:11.823Z,65.09
2018-09-17T05:14:04.462Z,65.17
2018-09-17T05:18:57.218Z,65.66
2018-09-17T05:23:49.894Z,65.29
2018-09-17T05:28:42.833Z,64.72
2018-09-17T05:33:35.443Z,64.88
2018-09-17T05:38:28.009Z,64.84
2018-09-17T05:43:20.571Z,64.48
2018-09-17T05:48:13.163Z,64.12
2018-09-17T05:53:05.943Z,63.63
2018-09-17T05:57:58.599Z,64.04
2018-09-17T06:02:51.148Z,63.19
2018-09-17T06:07:43.766Z,64.05
2018-09-17T06:12:36.432Z,63.74
2018-09-17T06:17:29.040Z,63.79
2018-09-17T06:22:21.590Z,63.60
2018-09-17T06:27:14.204Z,63.23
2018-09-17T06:32:06.785Z,62.64
2018-09-17T06:36:59.396Z,61.81
2018-09-17T06:41:51.949Z,60.76
2018-09-17T06:46:44.571Z,59.45
2018-09-17T06:51:37.224Z,58.10
2018-09-17T06:56:29.890Z,57.82
2018-09-17T07:01:22.489Z,58.02
2018-09-17T07:06:15.136Z,57.07
2018-09-17T07:11:08.373Z,55.33
2018-09-17T07:16:00.893Z,53.26
2018-09-17T07:20:53.627Z,52.74
2018-09-17T07:25:46.231Z,52.34
2018-09-17T07:30:38.790Z,52.23
2018-09-17T07:35:31.457Z,51.43
2018-09-17T07:40:24.054Z,50.53
2018-09-17T07:45:16.745Z,50.23
2018-09-17T07:50:09.384Z,50.46
2018-09-17T07:55:01.926Z,49.34
2018-09-17T07:59:54.484Z,48.89
2018-09-17T08:04:47.115Z,49.24
2018-09-17T08:09:39.843Z,49.58
2018-09-17T08:14:32.461Z,48.77
2018-09-17T08:19:25.043Z,48.10
2018-09-17T08:24:17.704Z,47.69
2018-09-17T08:29:10.339Z,47.04
2018-09-17T08:34:02.976Z,47.33
2018-09-17T08:38:55.576Z,46.97
2018-09-17T08:43:48.274Z,45.99
2018-09-17T08:48:40.947Z,46.44
2018-09-17T08:53:33.567Z,46.25
2018-09-17T08:58:30.966Z,45.61
2018-09-17T09:03:31.346Z,46.23
2018-09-17T09:08:23.966Z,45.12
2018-09-17T09:13:24.101Z,45.17
2018-09-17T09:18:16.742Z,44.34
2018-09-17T09:23:09.314Z,43.02
2018-09-17T09:28:04.341Z,43.58
2018-09-17T09:32:57.026Z,42.78
2018-09-17T09:37:49.928Z,41.84
2018-09-17T09:42:43.387Z,40.66
2018-09-17T09:47:35.934Z,40.57
2018-09-17T09:52:28.485Z,41.02
2018-09-17T09:57:21.158Z,40.66
2018-09-17T10:02:19.632Z,39.21
2018-09-17T10:07:12.231Z,39.13
2018-09-17T10:12:10.477Z,39.60
2018-09-17T10:17:08.817Z,37.76
2018-09-17T10:22:01.530Z,37.83
2018-09-17T10:26:54.083Z,37.61
2018-09-17T10:31:46.646Z,35.23
2018-09-17T10:36:39.134Z,35.13
2018-09-17T10:41:31.979Z,34.92
2018-09-17T10:46:24.589Z,36.08
2018-09-17T10:51:17.122Z,36.92
2018-09-17T10:56:09.787Z,36.50
2018-09-17T11:01:02.316Z,34.67
2018-09-17T11:05:54.875Z,34.46
2018-09-17T11:10:47.515Z,35.76
2018-09-17T11:15:47.395Z,33.89
2018-09-17T11:20:39.987Z,33.54
2018-09-17T11:25:32.621Z,34.22
2018-09-17T11:30:25.294Z,33.18
2018-09-17T11:35:17.866Z,33.43
2018-09-17T11:40:10.581Z,33.65
2018-09-17T11:45:03.293Z,31.81
2018-09-17T11:49:55.863Z,31.38
2018-09-17T11:54:48.655Z,31.75
2018-09-17T11:59:41.331Z,30.62
2018-09-17T12:04:40.040Z,30.83
2018-09-17T12:09:32.818Z,29.70
2018-09-17T12:14:25.645Z,30.73
2018-09-17T12:19:18.170Z,30.23
2018-09-17T12:24:10.897Z,29.93
2018-09-17T12:29:03.600Z,31.49
2018-09-17T12:33:56.276Z,29.56
2018-09-17T12:38:48.747Z,28.31
2018-09-17T12:43:41.470Z,28.87
2018-09-17T12:48:34.197Z,28.33
2018-09-17T12:53:26.844Z,30.05
2018-09-17T12:58:19.423Z,28.75
2018-09-17T13:03:12.081Z,29.00
2018-09-17T13:08:04.844Z,28.21
2018-09-17T13:12:57.634Z,27.73
2018-09-17T13:17:50.256Z,28.07
2018-09-17T13:22:42.818Z,28.36
2018-09-17T13:27:35.493Z,27.64
2018-09-17T13:32:28.187Z,26.99
2018-09-17T13:37:20.873Z,26.44
2018-09-17T13:42:13.471Z,26.87
2018-09-17T13:47:06.148Z,26.37
2018-09-17T13:51:58.867Z,26.69
2018-09-17T13:56:51.558Z,25.96
2018-09-17T14:01:44.256Z,25.82
2018-09-17T14:06:36.910Z,26.43
2018-09-17T14:11:29.591Z,27.53
2018-09-17T14:16:28.110Z,26.04
2018-09-17T14:21:20.718Z,26.25
2018-09-17T14:26:13.427Z,27.46
2018-09-17T14:31:06.233Z,26.95
2018-09-17T14:35:58.851Z,26.53
2018-09-17T14:40:51.460Z,26.19
2018-09-17T14:45:44.059Z,26.28
2018-09-17T14:50:36.644Z,25.01
2018-09-17T14:55:29.239Z,25.29
2018-09-17T15:00:21.838Z,25.24
2018-09-17T15:05:14.428Z,25.48
2018-09-17T15:10:07.071Z,25.74
2018-09-17T15:14:59.688Z,25.18
2018-09-17T15:19:52.350Z,24.98
2018-09-17T15:24:44.865Z,25.86
2018-09-17T15:29:37.595Z,25.58
2018-09-17T15:34:30.294Z,25.77
2018-09-17T15:39:22.801Z,25.60
2018-09-17T15:44:15.412Z,25.39
2018-09-17T15:49:08.007Z,24.87
2018-09-17T15:54:00.530Z,25.59
2018-09-17T15:58:53.075Z,24.72
2018-09-17T16:03:45.658Z,24.94
2018-09-17T16:08:38.297Z,26.08
2018-09-17T16:13:30.875Z,25.81
2018-09-17T16:18:23.431Z,26.02
2018-09-17T16:23:16.066Z,27.29
2018-09-17T16:28:08.777Z,27.94
2018-09-17T16:33:01.352Z,27.75
2018-09-17T16:37:54.252Z,30.01
2018-09-17T16:42:46.861Z,30.19
2018-09-17T16:47:39.456Z,30.67
2018-09-17T16:52:32.124Z,32.01
2018-09-17T16:57:24.746Z,32.00
2018-09-17T17:02:17.283Z,32.54
2018-09-17T17:07:09.947Z,32.63
2018-09-17T17:12:02.639Z,33.84
2018-09-17T17:16:55.111Z,33.80
2018-09-17T17:21:47.687Z,32.78
2018-09-17T17:26:40.310Z,33.62
2018-09-17T17:31:32.872Z,34.39
2018-09-17T17:36:25.678Z,33.84
2018-09-17T17:41:18.245Z,34.77
2018-09-17T17:46:10.960Z,34.60
2018-09-17T17:51:03.467Z,35.28
2018-09-17T17:55:56.222Z,34.97
2018-09-17T18:00:48.885Z,35.62
2018-09-17T18:05:41.408Z,35.92
2018-09-17T18:10:34.040Z,35.74
2018-09-17T18:15:26.575Z,35.89
2018-09-17T18:20:19.181Z,36.56
2018-09-17T18:25:11.816Z,36.57
2018-09-17T18:30:04.505Z,37.59
2018-09-17T18:34:57.303Z,37.73
2018-09-17T18:39:49.849Z,36.96
2018-09-17T18:44:42.531Z,37.58
2018-09-17T18:49:35.132Z,38.54
2018-09-17T18:54:27.684Z,37.98
2018-09-17T18:59:20.560Z,39.12
2018-09-17T19:04:13.216Z,38.41
2018-09-17T19:09:07.125Z,38.61
2018-09-17T19:14:05.405Z,39.22
2018-09-17T19:18:58.041Z,38.82
2018-09-17T19:23:56.555Z,39.90
2018-09-17T19:28:54.827Z,40.37
2018-09-17T19:33:47.462Z,40.76
2018-09-17T19:38:46.092Z,40.40
2018-09-17T19:43:38.597Z,41.61
2018-09-17T19:48:31.246Z,41.72
2018-09-17T19:53:23.844Z,41.51
2018-09-17T19:58:22.336Z,42.34
2018-09-17T20:03:15.139Z,42.45
2018-09-17T20:08:07.703Z,42.28
2018-09-17T20:13:00.313Z,42.80
2018-09-17T20:17:52.848Z,42.97
2018-09-17T20:22:45.374Z,42.95
2018-09-17T20:27:37.931Z,42.88
2018-09-17T20:32:30.493Z,43.01
2018-09-17T20:37:23.071Z,43.80
2018-09-17T20:42:15.818Z,43.82
2018-09-17T20:47:08.575Z,43.41
2018-09-17T20:52:01.208Z,44.40
2018-09-17T20:56:53.836Z,44.15
2018-09-17T21:01:46.765Z,44.77
2018-09-17T21:12:04.229Z,44.52
2018-09-17T21:16:56.660Z,44.50
2018-09-17T21:21:49.520Z,46.13
2018-09-17T21:26:42.177Z,45.71
2018-09-17T21:31:34.771Z,46.18
2018-09-17T21:36:27.555Z,46.93
2018-09-17T21:41:20.320Z,46.30
2018-09-17T21:46:12.932Z,47.12
2018-09-17T21:51:05.555Z,47.21
2018-09-17T21:55:58.184Z,46.77
2018-09-17T22:00:56.713Z,47.57
2018-09-17T22:05:49.341Z,47.73
2018-09-17T22:10:41.910Z,47.85
2018-09-17T22:15:34.531Z,47.52
2018-09-17T22:20:27.283Z,48.67
2018-09-17T22:25:19.974Z,49.01
2018-09-17T22:30:12.636Z,48.61
2018-09-17T22:35:05.263Z,48.62
2018-09-17T22:39:57.892Z,48.75
2018-09-17T22:44:50.516Z,48.69
2018-09-17T22:49:43.098Z,49.85
2018-09-17T22:54:35.695Z,49.55
2018-09-17T22:59:28.296Z,50.22
2018-09-17T23:04:20.866Z,49.71
2018-09-17T23:09:13.508Z,50.79
2018-09-17T23:14:06.081Z,50.25
2018-09-17T23:18:58.766Z,50.98
2018-09-17T23:23:51.450Z,50.89
2018-09-17T23:28:44.187Z,50.92
2018-09-17T23:33:36.755Z,51.08
2018-09-17T23:38:29.335Z,51.79
2018-09-17T23:43:21.938Z,51.95
2018-09-17T23:48:14.531Z,51.86
2018-09-17T23:53:07.181Z,52.11
2018-09-17T23:57:59.741Z,52.34
